createdAt,value
2018-08-10T00:01:38.830Z,6.70
2018-08-10T00:04:06.997Z,5.30
2018-08-10T00:06:35.066Z,5.73
2018-08-10T00:09:03.165Z,6.10
2018-08-10T00:11:31.541Z,6.07
2018-08-10T00:13:59.624Z,6.33
2018-08-10T00:16:27.702Z,6.07
2018-08-10T00:18:56.023Z,5.43
2018-08-10T00:21:24.030Z,5.87
2018-08-10T00:23:52.062Z,6.33
2018-08-10T00:26:20.109Z,5.50
2018-08-10T00:28:48.121Z,6.13
2018-08-10T00:31:16.531Z,6.67
2018-08-10T00:33:44.612Z,9.40
2018-08-10T00:36:12.697Z,7.10
2018-08-10T00:38:40.791Z,6.70
2018-08-10T00:41:08.865Z,6.90
2018-08-10T00:43:36.865Z,7.13
2018-08-10T00:46:04.969Z,7.03
2018-08-10T00:48:33.317Z,7.03
2018-08-10T00:51:01.406Z,5.40
2018-08-10T00:53:29.417Z,5.80
2018-08-10T00:55:57.678Z,5.40
2018-08-10T00:58:25.762Z,7.50
2018-08-10T01:00:53.758Z,6.87
2018-08-10T01:03:21.822Z,6.50
2018-08-10T01:05:49.821Z,5.73
2018-08-10T01:08:17.893Z,6.37
2018-08-10T01:10:46.070Z,5.80
2018-08-10T01:13:14.198Z,5.90
2018-08-10T01:15:42.178Z,6.47
2018-08-10T01:18:10.433Z,5.97
2018-08-10T01:20:38.477Z,6.13
2018-08-10T01:23:07.636Z,6.10
2018-08-10T01:25:35.659Z,5.50
2018-08-10T01:28:04.705Z,5.80
2018-08-10T01:30:34.129Z,5.50
2018-08-10T01:33:02.632Z,6.53
2018-08-10T01:35:31.014Z,6.53
2018-08-10T01:38:00.159Z,6.93
2018-08-10T01:40:28.197Z,6.53
2018-08-10T01:42:56.293Z,6.20
2018-08-10T01:45:24.354Z,5.70
2018-08-10T01:47:52.466Z,6.50
2018-08-10T01:50:26.922Z,6.10
2018-08-10T01:52:54.982Z,6.07
2018-08-10T01:55:23.019Z,5.77
2018-08-10T01:57:51.066Z,6.53
2018-08-10T02:00:19.138Z,5.17
2018-08-10T02:02:47.214Z,5.37
2018-08-10T02:05:15.913Z,5.40
2018-08-10T02:07:44.190Z,5.77
2018-08-10T02:10:14.161Z,5.63
2018-08-10T02:12:43.027Z,5.33
2018-08-10T02:15:13.809Z,6.00
2018-08-10T02:17:41.820Z,5.17
2018-08-10T02:20:11.790Z,5.63
2018-08-10T02:22:39.981Z,4.67
2018-08-10T02:25:09.530Z,5.97
2018-08-10T02:27:37.690Z,6.03
2018-08-10T02:30:07.207Z,4.83
2018-08-10T02:32:35.233Z,5.00
2018-08-10T02:35:03.370Z,5.30
2018-08-10T02:37:31.562Z,5.03
2018-08-10T02:39:59.641Z,4.73
2018-08-10T02:42:27.694Z,4.80
2018-08-10T02:44:55.739Z,4.67
2018-08-10T02:47:24.607Z,6.03
2018-08-10T02:49:54.153Z,4.40
2018-08-10T02:52:22.625Z,3.90
2018-08-10T02:54:50.709Z,4.10
2018-08-10T02:57:19.202Z,3.77
2018-08-10T02:59:47.234Z,4.13
2018-08-10T03:02:15.991Z,4.30
2018-08-10T03:04:44.076Z,3.87
2018-08-10T03:07:12.290Z,3.60
2018-08-10T03:09:40.651Z,3.30
2018-08-10T03:12:09.659Z,3.60
2018-08-10T03:14:38.041Z,3.57
2018-08-10T03:17:06.434Z,4.20
2018-08-10T03:19:34.523Z,3.63
2018-08-10T03:22:02.603Z,3.30
2018-08-10T03:24:30.569Z,3.37
2018-08-10T03:26:58.634Z,3.40
2018-08-10T03:29:26.634Z,3.57
2018-08-10T03:31:55.042Z,3.07
2018-08-10T03:34:23.139Z,3.10
2018-08-10T03:36:51.227Z,3.90
2018-08-10T03:39:19.304Z,3.33
2018-08-10T03:41:47.330Z,3.00
2018-08-10T03:44:15.378Z,4.03
2018-08-10T03:46:43.537Z,3.10
2018-08-10T03:49:11.542Z,3.20
2018-08-10T03:51:39.598Z,2.90
2018-08-10T03:54:07.638Z,3.10
2018-08-10T03:56:35.914Z,2.60
2018-08-10T03:59:03.910Z,2.53
2018-08-10T04:01:31.962Z,2.87
2018-08-10T04:03:59.989Z,3.00
2018-08-10T04:06:28.002Z,2.67
2018-08-10T04:08:56.339Z,2.40
2018-08-10T04:11:24.378Z,2.70
2018-08-10T04:13:52.379Z,3.37
2018-08-10T04:16:20.421Z,3.00
2018-08-10T04:18:48.454Z,1.80
2018-08-10T04:21:16.489Z,3.27
2018-08-10T04:23:44.585Z,2.10
2018-08-10T04:26:12.572Z,3.27
2018-08-10T04:28:40.606Z,2.53
2018-08-10T04:31:08.641Z,2.03
2018-08-10T04:33:36.663Z,1.70
2018-08-10T04:36:04.735Z,2.30
2018-08-10T04:38:32.804Z,2.40
2018-08-10T04:41:00.798Z,2.20
2018-08-10T04:43:28.794Z,2.70
2018-08-10T04:45:56.830Z,2.70
2018-08-10T04:48:24.846Z,2.53
2018-08-10T04:50:52.933Z,1.93
2018-08-10T04:53:20.970Z,2.70
2018-08-10T04:55:49.110Z,1.93
2018-08-10T04:58:17.426Z,1.40
2018-08-10T05:00:45.426Z,2.33
2018-08-10T05:03:13.517Z,1.70
2018-08-10T05:05:41.621Z,2.17
2018-08-10T05:08:09.633Z,1.90
2018-08-10T05:10:37.710Z,1.60
2018-08-10T05:13:05.897Z,2.20
2018-08-10T05:15:34.192Z,2.60
2018-08-10T05:18:02.178Z,2.33
2018-08-10T05:20:30.169Z,2.37
2018-08-10T05:22:58.533Z,1.83
2018-08-10T05:25:26.580Z,2.47
2018-08-10T05:27:54.605Z,1.30
2018-08-10T05:30:22.649Z,1.97
2018-08-10T05:32:50.641Z,1.40
2018-08-10T05:35:18.668Z,1.40
2018-08-10T05:37:46.666Z,1.37
2018-08-10T05:40:14.819Z,1.60
2018-08-10T05:42:42.911Z,1.50
2018-08-10T05:45:10.989Z,1.60
2018-08-10T05:47:39.034Z,1.50
2018-08-10T05:50:07.467Z,1.50
2018-08-10T05:52:35.632Z,1.40
2018-08-10T05:55:04.140Z,1.20
2018-08-10T05:57:32.307Z,1.50
2018-08-10T06:00:00.309Z,1.10
2018-08-10T06:02:28.602Z,1.50
2018-08-10T06:04:56.677Z,1.63
2018-08-10T06:07:24.771Z,1.43
2018-08-10T06:09:52.794Z,1.27
2018-08-10T06:12:20.893Z,0.90
2018-08-10T06:14:48.898Z,1.53
2018-08-10T06:17:17.213Z,2.30
2018-08-10T06:19:45.332Z,1.27
2018-08-10T06:22:13.434Z,1.00
2018-08-10T06:24:41.470Z,2.10
2018-08-10T06:27:09.549Z,3.10
2018-08-10T06:29:37.573Z,1.30
2018-08-10T06:32:05.614Z,1.77
2018-08-10T06:34:33.694Z,1.63
2018-08-10T06:37:01.781Z,2.00
2018-08-10T06:39:29.860Z,1.07
2018-08-10T06:41:57.954Z,1.10
2018-08-10T06:44:25.953Z,1.23
2018-08-10T06:46:54.019Z,1.37
2018-08-10T06:49:22.093Z,1.10
2018-08-10T06:51:50.095Z,1.30
2018-08-10T06:54:18.130Z,1.40
2018-08-10T06:56:46.162Z,0.90
2018-08-10T06:59:14.174Z,1.40
2018-08-10T07:01:42.476Z,1.00
2018-08-10T07:04:10.469Z,1.77
2018-08-10T07:06:38.483Z,1.40
2018-08-10T07:09:08.241Z,1.10
2018-08-10T07:11:36.301Z,1.10
2018-08-10T07:14:04.373Z,1.20
2018-08-10T07:16:32.773Z,1.20
2018-08-10T07:19:00.854Z,1.33
2018-08-10T07:21:30.125Z,0.80
2018-08-10T07:23:58.250Z,0.53
2018-08-10T07:26:26.441Z,0.50
2018-08-10T07:28:54.442Z,0.50
2018-08-10T07:31:22.748Z,0.53
2018-08-10T07:33:50.903Z,0.50
2018-08-10T07:36:18.982Z,0.50
2018-08-10T07:38:47.066Z,0.43
2018-08-10T07:41:15.361Z,0.70
2018-08-10T07:43:43.434Z,0.53
2018-08-10T07:46:11.438Z,0.67
2018-08-10T07:48:42.565Z,0.70
2018-08-10T07:51:11.157Z,0.57
2018-08-10T07:53:39.190Z,0.50
2018-08-10T07:56:07.473Z,0.40
2018-08-10T07:58:35.524Z,0.50
2018-08-10T08:01:03.513Z,0.50
2018-08-10T08:03:31.632Z,0.50
2018-08-10T08:06:00.100Z,0.80
2018-08-10T08:08:28.165Z,0.90
2018-08-10T08:10:56.217Z,0.63
2018-08-10T08:13:24.242Z,0.60
2018-08-10T08:15:52.321Z,0.60
2018-08-10T08:18:20.364Z,0.60
2018-08-10T08:21:07.424Z,0.70
2018-08-10T08:23:35.825Z,0.57
2018-08-10T08:26:04.521Z,0.50
2018-08-10T08:28:33.013Z,0.60
2018-08-10T08:31:02.066Z,0.57
2018-08-10T08:33:30.418Z,0.60
2018-08-10T08:35:59.350Z,0.60
2018-08-10T08:38:39.485Z,0.50
2018-08-10T08:41:08.790Z,0.57
2018-08-10T08:46:06.015Z,0.70
2018-08-10T08:48:35.506Z,1.70
2018-08-10T08:51:05.333Z,0.60
2018-08-10T08:53:33.429Z,0.60
2018-08-10T08:56:03.957Z,0.73
2018-08-10T08:58:32.562Z,0.50
2018-08-10T09:01:00.760Z,0.53
2018-08-10T09:03:40.646Z,0.53
2018-08-10T09:06:08.931Z,0.50
2018-08-10T09:08:36.977Z,0.43
2018-08-10T09:11:06.742Z,0.60
2018-08-10T09:14:53.530Z,0.70
2018-08-10T09:17:21.664Z,0.50
2018-08-10T09:19:50.023Z,0.40
2018-08-10T09:22:18.101Z,0.53
2018-08-10T09:24:46.195Z,0.47
2018-08-10T09:27:14.378Z,0.50
2018-08-10T09:29:42.439Z,0.60
2018-08-10T09:32:10.538Z,0.53
2018-08-10T09:34:38.625Z,0.60
2018-08-10T09:37:07.762Z,0.60
2018-08-10T09:39:35.757Z,0.50
2018-08-10T09:42:04.343Z,0.60
2018-08-10T09:44:32.951Z,0.47
2018-08-10T09:47:01.537Z,0.80
2018-08-10T09:49:33.028Z,0.50
2018-08-10T09:52:01.075Z,0.50
2018-08-10T09:54:29.143Z,0.60
2018-08-10T09:57:02.004Z,0.50
2018-08-10T09:59:30.316Z,0.50
2018-08-10T10:02:03.888Z,0.60
2018-08-10T10:04:32.218Z,0.60
2018-08-10T10:07:00.642Z,0.60
2018-08-10T10:09:29.011Z,0.60
2018-08-10T10:11:57.498Z,0.60
2018-08-10T10:14:25.591Z,0.60
2018-08-10T10:16:53.665Z,0.70
2018-08-10T10:19:21.885Z,0.60
2018-08-10T10:21:50.037Z,0.70
2018-08-10T10:24:18.130Z,0.70
2018-08-10T10:26:46.267Z,0.63
2018-08-10T10:29:14.388Z,0.80
2018-08-10T10:31:42.410Z,0.60
2018-08-10T10:34:11.093Z,1.43
2018-08-10T10:36:39.121Z,0.70
2018-08-10T10:39:09.293Z,0.60
2018-08-10T10:41:37.381Z,0.80
2018-08-10T10:44:05.502Z,0.50
2018-08-10T10:46:33.550Z,1.53
2018-08-10T10:49:01.937Z,0.60
2018-08-10T10:51:30.340Z,0.70
2018-08-10T10:53:58.419Z,0.60
2018-08-10T10:56:26.510Z,0.70
2018-08-10T10:58:54.477Z,0.70
2018-08-10T11:01:22.522Z,1.23
2018-08-10T11:03:50.746Z,0.80
2018-08-10T11:06:18.802Z,0.70
2018-08-10T11:08:46.773Z,0.70
2018-08-10T11:11:14.813Z,0.70
2018-08-10T11:13:42.893Z,0.80
2018-08-10T11:16:10.886Z,0.73
2018-08-10T11:18:38.955Z,0.60
2018-08-10T11:21:07.030Z,0.80
2018-08-10T11:23:35.119Z,0.67
2018-08-10T11:26:03.212Z,0.80
2018-08-10T11:28:31.202Z,0.60
2018-08-10T11:30:59.229Z,0.77
2018-08-10T11:33:27.241Z,0.80
2018-08-10T11:35:55.533Z,0.70
2018-08-10T11:38:23.626Z,0.80
2018-08-10T11:40:51.614Z,0.80
2018-08-10T11:43:20.002Z,0.70
2018-08-10T11:45:48.077Z,0.70
2018-08-10T11:48:16.090Z,0.77
2018-08-10T11:50:44.121Z,0.70
2018-08-10T11:53:12.227Z,0.87
2018-08-10T11:55:40.413Z,0.70
2018-08-10T11:58:08.519Z,0.73
2018-08-10T12:00:36.552Z,0.70
2018-08-10T12:03:04.532Z,0.90
2018-08-10T12:05:32.619Z,0.80
2018-08-10T12:08:00.690Z,0.70
2018-08-10T12:10:28.765Z,0.80
2018-08-10T12:12:57.110Z,0.63
2018-08-10T12:15:25.086Z,0.90
2018-08-10T12:17:53.101Z,0.80
2018-08-10T12:20:21.157Z,1.10
2018-08-10T12:22:49.247Z,0.80
2018-08-10T12:25:17.325Z,1.10
2018-08-10T12:27:46.802Z,0.70
2018-08-10T12:30:14.878Z,0.90
2018-08-10T12:32:42.906Z,0.80
2018-08-10T12:35:11.225Z,1.47
2018-08-10T12:37:39.338Z,0.63
2018-08-10T12:40:07.682Z,0.70
2018-08-10T12:42:35.758Z,0.80
2018-08-10T12:45:33.866Z,0.90
2018-08-10T12:48:01.865Z,1.40
2018-08-10T12:50:29.944Z,0.80
2018-08-10T12:52:57.962Z,1.20
2018-08-10T12:55:25.936Z,0.70
2018-08-10T12:57:53.970Z,0.70
2018-08-10T13:00:22.050Z,0.90
2018-08-10T13:02:50.197Z,0.80
2018-08-10T13:05:18.175Z,0.80
2018-08-10T13:07:46.177Z,1.20
2018-08-10T13:10:14.185Z,0.87
2018-08-10T13:12:42.257Z,0.90
2018-08-10T13:15:11.677Z,0.90
2018-08-10T13:17:39.725Z,0.90
2018-08-10T13:20:10.005Z,0.80
2018-08-10T13:22:38.273Z,1.10
2018-08-10T13:25:06.982Z,0.90
2018-08-10T13:27:35.214Z,1.00
2018-08-10T13:30:03.253Z,0.90
2018-08-10T13:32:31.330Z,0.97
2018-08-10T13:34:59.374Z,0.90
2018-08-10T13:37:27.422Z,1.00
2018-08-10T13:39:55.517Z,1.47
2018-08-10T13:42:23.553Z,0.87
2018-08-10T13:44:51.594Z,0.97
2018-08-10T13:47:19.606Z,1.47
2018-08-10T13:49:47.821Z,1.00
2018-08-10T13:52:16.045Z,1.00
2018-08-10T13:54:44.087Z,1.10
2018-08-10T13:57:12.085Z,0.90
2018-08-10T13:59:40.091Z,1.03
2018-08-10T14:02:09.411Z,0.90
2018-08-10T14:04:37.457Z,1.03
2018-08-10T14:07:05.615Z,0.90
2018-08-10T14:09:33.726Z,0.97
2018-08-10T14:12:01.838Z,1.00
2018-08-10T14:14:29.913Z,1.00
2018-08-10T14:16:58.128Z,1.10
2018-08-10T14:19:26.498Z,0.93
2018-08-10T14:21:54.581Z,0.80
2018-08-10T14:24:22.600Z,0.80
2018-08-10T14:26:50.650Z,0.90
2018-08-10T14:29:18.786Z,1.00
2018-08-10T14:31:46.821Z,0.90
2018-08-10T14:34:14.875Z,0.90
2018-08-10T14:36:42.868Z,0.80
2018-08-10T14:39:12.141Z,0.80
2018-08-10T14:41:40.381Z,0.80
2018-08-10T14:44:08.418Z,1.13
2018-08-10T14:46:36.897Z,0.60
2018-08-10T14:49:05.865Z,0.70
2018-08-10T14:51:33.948Z,0.70
2018-08-10T14:54:08.726Z,0.90
2018-08-10T14:56:36.734Z,0.70
2018-08-10T14:59:04.745Z,0.80
2018-08-10T15:01:32.845Z,0.70
2018-08-10T15:04:00.900Z,0.80
2018-08-10T15:06:28.925Z,0.80
2018-08-10T15:08:56.996Z,0.80
2018-08-10T15:11:25.078Z,0.83
2018-08-10T15:13:53.078Z,2.10
2018-08-10T15:16:21.241Z,1.10
2018-08-10T15:18:49.601Z,2.93
2018-08-10T15:21:17.613Z,0.80
2018-08-10T15:23:45.615Z,0.97
2018-08-10T15:26:13.685Z,0.73
2018-08-10T15:28:41.768Z,0.60
2018-08-10T15:31:09.807Z,0.60
2018-08-10T15:33:38.058Z,0.60
2018-08-10T15:36:06.288Z,0.70
2018-08-10T15:38:34.502Z,1.27
2018-08-10T15:41:02.513Z,0.80
2018-08-10T15:43:30.606Z,0.60
2018-08-10T15:45:58.617Z,0.60
2018-08-10T15:48:26.625Z,1.63
2018-08-10T15:50:54.668Z,1.90
2018-08-10T15:53:22.802Z,1.63
2018-08-10T15:55:50.915Z,19.07
2018-08-10T15:58:19.286Z,1.80
2018-08-10T16:00:47.373Z,2.27
2018-08-10T16:03:15.382Z,0.60
2018-08-10T16:05:43.441Z,0.60
2018-08-10T16:08:11.450Z,0.50
2018-08-10T16:10:39.509Z,0.80
2018-08-10T16:13:07.506Z,0.53
2018-08-10T16:15:35.882Z,0.70
2018-08-10T16:18:03.958Z,0.70
2018-08-10T16:20:32.016Z,0.60
2018-08-10T16:23:00.126Z,0.80
2018-08-10T16:25:28.825Z,0.67
2018-08-10T16:27:56.870Z,0.63
2018-08-10T16:30:25.052Z,0.73
2018-08-10T16:32:53.089Z,0.70
2018-08-10T16:35:21.470Z,0.60
2018-08-10T16:37:49.520Z,1.40
2018-08-10T16:40:18.248Z,0.80
2018-08-10T16:42:46.353Z,0.60
2018-08-10T16:45:14.734Z,0.50
2018-08-10T16:47:42.916Z,0.57
2018-08-10T16:50:14.888Z,0.50
2018-08-10T16:52:43.695Z,1.27
2018-08-10T16:55:14.685Z,0.70
2018-08-10T16:57:43.577Z,0.70
2018-08-10T17:00:15.348Z,0.70
2018-08-10T17:02:43.805Z,0.57
2018-08-10T17:05:11.902Z,0.50
2018-08-10T17:07:40.390Z,0.80
2018-08-10T17:10:08.777Z,0.60
2018-08-10T17:12:38.402Z,0.50
2018-08-10T17:15:09.646Z,0.50
2018-08-10T17:17:37.681Z,0.60
2018-08-10T17:20:05.685Z,0.50
2018-08-10T17:22:33.901Z,0.73
2018-08-10T17:25:01.971Z,1.20
2018-08-10T17:27:30.485Z,0.50
2018-08-10T17:29:58.505Z,0.63
2018-08-10T17:32:26.864Z,0.50
2018-08-10T17:34:54.942Z,0.60
2018-08-10T17:37:22.946Z,0.70
2018-08-10T17:39:51.065Z,0.57
2018-08-10T17:42:19.062Z,0.53
2018-08-10T17:44:47.097Z,0.73
2018-08-10T17:47:15.157Z,0.50
2018-08-10T17:49:43.346Z,0.60
2018-08-10T17:52:11.439Z,1.53
2018-08-10T17:54:39.476Z,0.70
2018-08-10T17:57:07.471Z,0.60
2018-08-10T17:59:35.649Z,1.17
2018-08-10T18:02:03.657Z,0.87
2018-08-10T18:04:31.749Z,0.70
2018-08-10T18:06:59.822Z,0.57
2018-08-10T18:09:27.921Z,0.60
2018-08-10T18:11:56.011Z,0.70
2018-08-10T18:14:24.377Z,0.60
2018-08-10T18:16:52.485Z,0.70
2018-08-10T18:19:20.558Z,0.50
2018-08-10T18:21:48.649Z,0.50
2018-08-10T18:24:16.680Z,0.53
2018-08-10T18:26:44.740Z,0.83
2018-08-10T18:29:13.896Z,0.67
2018-08-10T18:31:41.978Z,0.60
2018-08-10T18:34:09.990Z,0.57
2018-08-10T18:36:38.066Z,0.60
2018-08-10T18:39:11.248Z,0.50
2018-08-10T18:41:39.765Z,0.70
2018-08-10T18:44:08.052Z,0.60
2018-08-10T18:46:36.382Z,0.70
2018-08-10T18:49:04.381Z,0.50
2018-08-10T18:51:32.388Z,0.60
2018-08-10T18:54:00.489Z,0.60
2018-08-10T18:56:28.838Z,0.73
2018-08-10T18:58:57.066Z,0.60
2018-08-10T19:01:25.157Z,0.67
2018-08-10T19:03:53.187Z,0.80
2018-08-10T19:06:21.217Z,0.70
2018-08-10T19:08:49.319Z,0.60
2018-08-10T19:11:17.313Z,0.97
2018-08-10T19:13:45.446Z,1.10
2018-08-10T19:16:13.662Z,0.80
2018-08-10T19:18:41.775Z,1.20
2018-08-10T19:21:09.761Z,1.27
2018-08-10T19:23:37.797Z,1.40
2018-08-10T19:26:06.006Z,1.20
2018-08-10T19:28:34.009Z,1.63
2018-08-10T19:31:02.062Z,1.40
2018-08-10T19:33:30.114Z,1.30
2018-08-10T19:35:58.234Z,1.37
2018-08-10T19:38:26.317Z,1.80
2018-08-10T19:40:54.385Z,1.83
2018-08-10T19:43:22.481Z,2.70
2018-08-10T19:45:50.674Z,2.17
2018-08-10T19:48:18.713Z,3.20
2018-08-10T19:50:46.701Z,2.00
2018-08-10T19:53:14.921Z,1.33
2018-08-10T19:55:43.309Z,1.43
2018-08-10T19:58:11.653Z,3.27
2018-08-10T20:00:39.689Z,2.63
2018-08-10T20:03:07.982Z,2.40
2018-08-10T20:05:36.058Z,1.90
2018-08-10T20:08:04.058Z,2.10
2018-08-10T20:10:32.101Z,2.40
2018-08-10T20:13:00.133Z,2.20
2018-08-10T20:15:28.259Z,3.43
2018-08-10T20:17:56.485Z,4.50
2018-08-10T20:20:24.498Z,4.03
2018-08-10T20:22:52.549Z,2.43
2018-08-10T20:25:20.662Z,2.37
2018-08-10T20:27:48.729Z,3.03
2018-08-10T20:30:18.022Z,3.10
2018-08-10T20:32:46.676Z,2.63
2018-08-10T20:35:16.144Z,2.87
2018-08-10T20:37:44.189Z,2.90
2018-08-10T20:40:14.235Z,3.03
2018-08-10T20:42:42.337Z,3.10
2018-08-10T20:45:10.346Z,3.70
2018-08-10T20:47:38.514Z,3.07
2018-08-10T20:50:09.041Z,2.80
2018-08-10T20:52:37.137Z,3.03
2018-08-10T20:55:05.629Z,3.60
2018-08-10T20:57:33.714Z,2.27
2018-08-10T21:00:01.751Z,2.47
2018-08-10T21:02:30.105Z,3.60
2018-08-10T21:04:58.272Z,4.27
2018-08-10T21:07:26.801Z,3.37
2018-08-10T21:09:54.881Z,2.47
2018-08-10T21:12:22.886Z,2.60
2018-08-10T21:14:50.941Z,2.30
2018-08-10T21:17:19.007Z,3.03
2018-08-10T21:19:47.045Z,2.30
2018-08-10T21:22:15.278Z,2.97
2018-08-10T21:24:43.354Z,2.30
2018-08-10T21:27:11.401Z,2.47
2018-08-10T21:29:39.657Z,2.10
2018-08-10T21:32:07.914Z,2.53
2018-08-10T21:34:35.998Z,2.63
2018-08-10T21:37:04.085Z,3.20
2018-08-10T21:39:32.194Z,3.03
2018-08-10T21:42:00.222Z,2.70
2018-08-10T21:44:28.234Z,2.00
2018-08-10T21:46:56.288Z,2.87
2018-08-10T21:49:24.386Z,2.33
2018-08-10T21:51:52.391Z,2.40
2018-08-10T21:54:21.797Z,1.90
2018-08-10T21:56:49.815Z,3.00
2018-08-10T21:59:17.810Z,1.90
2018-08-10T22:01:45.848Z,2.20
2018-08-10T22:04:13.905Z,2.20
2018-08-10T22:06:41.967Z,2.20
2018-08-10T22:09:10.134Z,1.90
2018-08-10T22:11:38.170Z,1.80
2018-08-10T22:14:11.498Z,2.20
2018-08-10T22:16:45.367Z,1.90
2018-08-10T22:19:14.732Z,1.60
2018-08-10T22:21:43.626Z,1.97
2018-08-10T22:24:11.725Z,2.30
2018-08-10T22:26:40.002Z,2.30
2018-08-10T22:29:08.093Z,2.00
2018-08-10T22:31:36.184Z,2.20
2018-08-10T22:34:04.225Z,1.60
2018-08-10T22:36:32.247Z,3.03
2018-08-10T22:39:00.432Z,2.37
2018-08-10T22:41:28.817Z,2.10
2018-08-10T22:43:56.905Z,2.50
2018-08-10T22:46:25.081Z,2.20
2018-08-10T22:48:53.123Z,2.90
2018-08-10T22:51:21.253Z,2.80
2018-08-10T22:53:49.302Z,2.93
2018-08-10T22:56:17.421Z,3.10
2018-08-10T22:58:45.452Z,2.73
2018-08-10T23:01:13.481Z,3.60
2018-08-10T23:03:41.577Z,2.43
2018-08-10T23:06:10.374Z,2.17
2018-08-10T23:08:38.509Z,2.60
2018-08-10T23:11:06.394Z,2.47
2018-08-10T23:13:34.433Z,2.30
2018-08-10T23:16:02.447Z,2.53
2018-08-10T23:18:30.545Z,2.43
2018-08-10T23:20:58.579Z,2.77
2018-08-10T23:23:26.626Z,2.43
2018-08-10T23:25:54.694Z,2.73
2018-08-10T23:28:22.853Z,2.50
2018-08-10T23:30:50.905Z,2.10
2018-08-10T23:33:18.925Z,2.73
2018-08-10T23:35:46.956Z,2.23
2018-08-10T23:38:15.263Z,2.40
2018-08-10T23:40:43.358Z,2.70
2018-08-10T23:43:11.357Z,1.80
2018-08-10T23:45:39.406Z,2.60
2018-08-10T23:48:07.502Z,2.27
2018-08-10T23:50:35.567Z,2.47
2018-08-10T23:53:03.581Z,2.47
2018-08-10T23:55:31.617Z,2.30
2018-08-10T23:57:59.916Z,2.13
